Skip to Main Content
SEARCH:
Location Air RH Dwp Precip Type Wind Speed Wind Gust Direction Pavement Temperature Date/Time
Hatem Bridge US 40 E/B 30 57 17 None 4 mph 7 mph NW 22 - 22 12/9/2016 8:28:00 AM
I-270 at I-370 28 56 15 None Calm 6 mph W 26 - 28 12/9/2016 8:25:00 AM
I-270 at MD-109 29 58 16 None 10 mph 19 mph W 26 - 32 12/9/2016 8:25:00 AM
I-495 at American Legion Bridge 30 53 15 None 6 mph 13 mph NW 33 - 33 12/9/2016 8:25:00 AM
I-68 at MD-219 15 95 14 None 19 mph 32 mph W 16 - 22 12/9/2016 8:25:00 AM
I-68 at Savage Mt 17 90 14 None 6 mph 20 mph NW 20 - 20 12/9/2016 8:25:00 AM
I-68 at Sideling Hill 25 72 17 None 5 mph 16 mph NE 30 - 31 12/9/2016 8:25:00 AM
I-68 at WV Line 18 85 14 None 6 mph 15 mph W 19 - 23 12/9/2016 8:25:00 AM
I-695 at I-83 29 56 15 None 4 mph 18 mph NW 27 - 32 12/9/2016 8:25:00 AM
I-70 at Fred-Wash Co. 24 71 16 None 8 mph 20 mph W 22 - 22 12/9/2016 8:25:00 AM
I-70 at I-695 29 57 16 None 5 mph 11 mph SW 26 - 36 12/9/2016 8:25:00 AM
I-70 at I-81 30 58 17 None 7 mph 17 mph W 31 - 31 12/9/2016 8:25:00 AM
I-70 at MD-27 27 62 16 None 4 mph 22 mph NW 27 - 30 12/9/2016 8:25:00 AM
I-70 at MD-32 28 58 15 None 7 mph 13 mph W 27 - 28 12/9/2016 8:25:00 AM
I-83 at MD-137 28 62 17 None 8 mph 16 mph SW 30 - 30 12/9/2016 8:25:00 AM
I-895 at I-95 - - - No Data Available - - No Data Available -
I-95 at I-695 NE - - - No Data Available - - No Data Available -
I-95 at Patuxent River 30 54 15 None Calm 7 mph N 32 - 33 12/9/2016 8:25:00 AM
I-95 at Tydings Bridge 31 59 19 None Calm 12 mph NW 29 - 32 12/9/2016 8:25:00 AM
I-95/495 at I-295 33 49 16 None 6 mph 11 mph W 38 - 75 12/9/2016 8:25:00 AM
I-97 at MD-100 31 51 15 None 7 mph 18 mph W 29 - 31 12/9/2016 8:25:00 AM
I-97 at MD-32 29 53 14 None 10 mph 17 mph N 30 - 32 12/9/2016 8:25:00 AM
MD 20 at MD 21 31 55 17 None 11 mph 25 mph W 31 - 31 12/9/2016 8:25:00 AM
MD 231 at Patuxent River 30 49 14 None 9 mph 15 mph NW 30 - 33 12/9/2016 8:25:00 AM
MD 260 at Cox Rd 30 52 14 None Calm 10 mph W 33 - 33 12/9/2016 8:25:00 AM
MD-135 at Salt Dome 15 97 14 None 4 mph 18 mph W 20 - 20 12/9/2016 8:25:00 AM
MD-140 at MD-97 26 64 15 None 9 mph 16 mph NW 28 - 28 12/9/2016 8:25:00 AM
MD-200 EB at Bonifant Rd 29 56 15 None 6 mph 14 mph NW 28 - 29 12/9/2016 8:27:00 AM
MD-200 WB at Muncaster Mill Rd 29 54 15 None 5 mph 16 mph NW 30 - 30 12/9/2016 8:27:00 AM
MD-213 at Sassafras River 31 61 19 None 13 mph 18 mph W 28 - 28 12/9/2016 8:25:00 AM
MD-24 at Rock St Park 28 68 19 None Calm 4 mph NE 28 - 28 12/9/2016 8:25:00 AM
MD-30 at PA Line 24 69 16 None 9 mph 13 mph W 26 - 26 12/9/2016 8:25:00 AM
MD-301 at MD-305 31 57 17 None 15 mph 24 mph NW 31 - 32 12/9/2016 8:25:00 AM
MD-33 at Knapps Narrows Drawbridge 32 57 18 None 20 mph 35 mph NW 32 - 32 12/9/2016 8:25:00 AM
MD-344 at MD-224 30 51 14 None 4 mph 9 mph W 30 - 30 12/9/2016 8:25:00 AM
MD-4 at Patuxent River 32 53 16 None - - No Data Available 29 - 34 12/9/2016 8:25:00 AM
MD-404 at Choptank River 32 57 18 None Calm 8 mph W 30 - 32 12/9/2016 8:25:00 AM
MD-43 at MD-150 30 54 16 None 10 mph 17 mph W 28 - 32 12/9/2016 8:25:00 AM
MD-51 at Oldtown Salt Dome 27 61 15 None 12 mph 21 mph W 31 - 31 12/9/2016 8:25:00 AM
MD-64 at MD-418 - - - No Data Available - - No Data Available -
US-1 at Baltimore / Harford Co. Line 29 57 16 None Calm 9 mph E 27 - 29 12/9/2016 8:25:00 AM
US-1 at Conowingo Dam 31 61 19 None Calm 7 mph W 31 - 31 12/9/2016 8:25:00 AM
US-13 at US-113 31 56 17 None 10 mph 16 mph NW 34 - 34 12/9/2016 8:25:00 AM
US-13 at US-50 - - - No Data Available - - No Data Available -
US-15 at MD-140 29 56 15 None 5 mph 12 mph W 24 - 30 12/9/2016 8:25:00 AM
US-301 at MD-5 30 52 15 None 5 mph 18 mph W 30 - 33 12/9/2016 8:25:00 AM
US-301 at Potomac 35 60 22 None 17 mph 25 mph NW 29 - 34 12/9/2016 8:25:00 AM
US-301 on HWN Bridge 31 49 14 Snow 16 mph 20 mph NW 25 - 25 12/9/2016 8:26:00 AM
US-340 at MD-180 29 56 15 None 8 mph 15 mph W 25 - 28 12/9/2016 8:25:00 AM
US-50 at Choptank 32 58 19 None 16 mph 24 mph NW 30 - 32 12/9/2016 8:25:00 AM
US-50 at I-95 - - - No Data Available - - No Data Available -
US-50 at MD-2 30 54 15 None 8 mph 20 mph W 29 - 32 12/9/2016 8:25:00 AM
US-50 at MD-331 32 55 17 None 9 mph 16 mph NW 31 - 34 12/9/2016 8:25:00 AM
US-50 at OC Drawbridge 31 56 17 None 12 mph 19 mph NW 34 - 34 12/9/2016 8:25:00 AM
US-50 at Table Rock Rd 15 97 14 Snow 7 mph 19 mph NW 21 - 21 12/9/2016 8:25:00 AM
US-50 Kent Narrow Bridge 32 54 17 None 8 mph 16 mph W 29 - 34 12/9/2016 8:25:00 AM
WPL Pier 31 30 51 14 None 17 mph 17 mph NW 27 - 27 12/9/2016 8:27:00 AM
Location Air RH Dwp Precip Type Wind Speed Wind Gust Direction Pavement Temperature Date/Time